Time;durP1;ratioP1;P1;durP2;ratioP2;P2;SDS_P1;SDS_P2;PMS_P1;PMS_P2;Temp;Humidity;BMP_temperature;BMP_pressure;BME280_temperature;BME280_humidity;BME280_pressure;Samples;Min_cycle;Max_cycle;Signal;HPM_P1;HPM_P2
2023/04/23 00:01:42;;;;;;;5.20;3.60;;;14.50;99.90;;;13.75;100.00;96687.78;5011310;28;20495;-76
2023/04/23 00:04:10;;;;;;;7.33;3.33;;;14.50;99.90;;;13.76;100.00;96692.78;5011315;28;20407;-77
2023/04/23 00:06:37;;;;;;;5.03;3.38;;;14.50;99.90;;;13.81;100.00;96697.25;5012434;28;20495;-77
2023/04/23 00:09:05;;;;;;;5.68;3.20;;;14.60;99.90;;;13.85;100.00;96691.06;5012456;28;20409;-77
2023/04/23 00:11:32;;;;;;;5.43;3.10;;;14.60;99.90;;;13.81;100.00;96700.72;5010977;28;20424;-77
2023/04/23 00:13:59;;;;;;;7.50;2.87;;;14.50;99.90;;;13.88;100.00;96697.69;5012198;28;20496;-77
2023/04/23 00:16:25;;;;;;;6.53;3.30;;;14.50;99.90;;;13.89;100.00;96689.44;5011592;28;20401;-77
2023/04/23 00:18:51;;;;;;;7.97;2.93;;;14.60;99.90;;;13.97;100.00;96689.84;5013014;28;20508;-77
2023/04/23 00:21:17;;;;;;;4.70;2.95;;;14.70;99.90;;;14.01;100.00;96693.50;5012113;28;20516;-77
2023/04/23 00:23:43;;;;;;;5.32;2.63;;;14.70;99.90;;;13.94;100.00;96694.66;5012284;28;20770;-77
2023/04/23 00:26:10;;;;;;;5.63;2.72;;;14.70;99.90;;;13.91;100.00;96697.09;5011157;28;20444;-77
2023/04/23 00:28:36;;;;;;;6.32;2.95;;;14.70;99.90;;;14.04;100.00;96695.59;5013161;28;20503;-77
2023/04/23 00:31:02;;;;;;;6.03;2.87;;;14.70;99.90;;;14.09;100.00;96690.97;5013440;28;20435;-78
2023/04/23 00:33:28;;;;;;;5.72;3.15;;;14.70;99.90;;;13.97;100.00;96692.50;5011332;28;20418;-77
2023/04/23 00:35:54;;;;;;;8.50;3.63;;;14.70;99.90;;;13.97;100.00;96695.19;5010609;28;20408;-77
2023/04/23 00:38:20;;;;;;;7.25;3.00;;;14.70;99.90;;;13.96;100.00;96699.69;5030354;22;20516;-76
2023/04/23 00:40:46;;;;;;;5.35;2.88;;;14.70;99.90;;;13.91;100.00;96703.22;5010468;28;20891;-77
2023/04/23 00:43:14;;;;;;;5.05;3.08;;;14.70;99.90;;;13.84;100.00;96694.00;5010504;28;20944;-77
2023/04/23 00:45:40;;;;;;;3.63;2.65;;;14.60;99.90;;;13.82;100.00;96704.16;5010345;28;20432;-76
2023/04/23 00:48:07;;;;;;;5.88;3.55;;;14.60;99.90;;;13.77;100.00;96707.69;5010542;28;20411;-76
2023/04/23 00:50:33;;;;;;;7.10;3.30;;;14.50;99.90;;;13.72;100.00;96713.06;5010161;28;20405;-77
2023/04/23 00:52:59;;;;;;;6.20;2.75;;;14.50;99.90;;;13.68;100.00;96714.72;5010441;28;20463;-76
2023/04/23 00:55:25;;;;;;;5.13;3.22;;;14.50;99.90;;;13.71;100.00;96714.16;5010564;28;20397;-77
2023/04/23 00:57:51;;;;;;;9.87;3.33;;;14.50;99.90;;;13.72;100.00;96717.59;5010411;28;20405;-77
2023/04/23 01:00:19;;;;;;;5.57;2.70;;;14.50;99.90;;;13.65;100.00;96725.94;5010250;28;20401;-76
2023/04/23 01:02:48;;;;;;;5.57;2.95;;;14.40;99.90;;;13.56;100.00;96719.66;5010385;28;20408;-76
2023/04/23 01:05:16;;;;;;;5.85;3.10;;;14.30;99.90;;;13.55;100.00;96718.09;5010604;28;20423;-77
2023/04/23 01:07:44;;;;;;;5.72;3.08;;;14.30;99.90;;;13.57;100.00;96715.94;5014166;28;20499;-77
2023/04/23 01:10:11;;;;;;;8.32;3.15;;;14.40;99.90;;;13.60;100.00;96719.91;5013720;28;20404;-77
2023/04/23 01:12:37;;;;;;;4.95;2.83;;;14.40;99.90;;;13.56;100.00;96717.00;5013751;28;20477;-76
2023/04/23 01:15:07;;;;;;;6.72;3.63;;;14.30;99.90;;;13.56;100.00;96720.47;5013745;28;20405;-77
2023/04/23 01:17:34;;;;;;;4.97;2.90;;;14.30;99.90;;;13.52;100.00;96718.69;5013687;28;20810;-76
2023/04/23 01:20:00;;;;;;;4.65;2.80;;;14.30;99.90;;;13.49;100.00;96722.69;5014142;28;20785;-76
2023/04/23 01:22:28;;;;;;;6.70;3.20;;;14.30;99.90;;;13.45;100.00;96724.34;5013672;28;20815;-76
2023/04/23 01:24:54;;;;;;;4.47;3.40;;;14.20;99.90;;;13.49;100.00;96730.66;5013535;28;20435;-77
2023/04/23 01:27:21;;;;;;;4.97;2.90;;;14.30;99.90;;;13.46;100.00;96728.56;5013643;28;20405;-77
2023/04/23 01:29:48;;;;;;;6.68;3.28;;;14.20;99.90;;;13.55;100.00;96728.72;5013576;28;20404;-76
2023/04/23 01:32:14;;;;;;;8.03;3.20;;;14.30;99.90;;;13.42;100.00;96740.84;5012124;28;20569;-76
2023/04/23 01:34:41;;;;;;;5.32;3.30;;;14.20;99.90;;;13.40;100.00;96740.34;5013341;28;20767;-76
2023/04/23 01:37:08;;;;;;;3.97;3.00;;;14.10;99.90;;;13.39;100.00;96736.09;5013436;28;20393;-76
2023/04/23 01:39:35;;;;;;;6.05;2.80;;;14.20;99.90;;;13.36;100.00;96744.66;5013167;28;20400;-77
2023/04/23 01:42:02;;;;;;;6.10;3.30;;;14.10;99.90;;;13.46;100.00;96741.84;5013341;28;20429;-76
2023/04/23 01:44:28;;;;;;;5.07;2.85;;;14.20;99.90;;;13.45;100.00;96736.84;5013238;28;20494;-76
2023/04/23 01:46:56;;;;;;;4.73;3.03;;;14.20;99.90;;;13.38;100.00;96734.50;5013275;28;20439;-77
2023/04/23 01:49:22;;;;;;;5.00;2.85;;;14.20;99.90;;;13.33;100.00;96728.47;5013164;28;20400;-77
2023/04/23 01:51:48;;;;;;;4.33;2.70;;;14.10;99.90;;;13.37;100.00;96732.94;5013014;28;20477;-76
2023/04/23 01:54:14;;;;;;;7.60;3.72;;;14.10;99.90;;;13.43;100.00;96736.34;5012868;28;20930;-77
2023/04/23 01:56:41;;;;;;;4.30;2.65;;;14.10;99.90;;;13.36;100.00;96746.53;5013102;28;20416;-76
2023/04/23 01:59:07;;;;;;;3.58;2.38;;;14.10;99.90;;;13.32;100.00;96742.81;5013164;28;20428;-77
2023/04/23 02:01:44;;;;;;;4.80;2.97;;;14.10;99.90;;;13.31;100.00;96738.59;5012855;28;20397;-77
2023/04/23 02:04:12;;;;;;;4.47;2.83;;;14.10;99.90;;;13.26;100.00;96744.75;5012807;28;20936;-77
2023/04/23 02:06:39;;;;;;;3.63;2.65;;;14.10;99.90;;;13.26;100.00;96750.06;5012821;28;20417;-76
2023/04/23 02:09:05;;;;;;;4.45;2.67;;;14.00;99.90;;;13.28;100.00;96739.97;5012725;28;20428;-76
2023/04/23 02:11:31;;;;;;;6.38;2.88;;;14.00;99.90;;;13.27;100.00;96753.53;5012645;28;20413;-76
2023/04/23 02:13:59;;;;;;;5.70;2.90;;;14.00;99.90;;;13.23;100.00;96763.91;5012553;28;20409;-76
2023/04/23 02:16:27;;;;;;;7.15;2.80;;;14.00;99.90;;;13.13;100.00;96772.03;5012318;28;20411;-76
2023/04/23 02:18:53;;;;;;;5.20;2.67;;;13.90;99.90;;;13.09;100.00;96774.41;5012155;28;20902;-77
2023/04/23 02:21:20;;;;;;;5.57;2.70;;;13.90;99.90;;;13.07;100.00;96770.47;5012423;28;20397;-76
2023/04/23 02:23:45;;;;;;;6.20;2.88;;;13.80;99.90;;;13.05;100.00;96777.91;5012395;28;20401;-76
2023/04/23 02:26:11;;;;;;;6.22;2.88;;;13.80;99.90;;;12.98;100.00;96772.16;5012610;28;20520;-76
2023/04/23 02:28:37;;;;;;;5.10;2.80;;;13.80;99.90;;;12.95;100.00;96764.72;5012517;28;20495;-76
2023/04/23 02:31:05;;;;;;;4.60;3.20;;;13.70;99.90;;;12.88;100.00;96766.91;5012241;28;20829;-76
2023/04/23 02:33:31;;;;;;;6.53;3.67;;;13.70;99.90;;;12.83;100.00;96767.78;5012282;28;20405;-76
2023/04/23 02:35:57;;;;;;;6.38;3.80;;;13.60;99.90;;;12.71;100.00;96754.06;5012198;28;20409;-76
2023/04/23 02:38:23;;;;;;;5.40;3.65;;;13.50;99.90;;;12.59;100.00;96766.91;5012131;28;20914;-76
2023/04/23 02:40:49;;;;;;;5.93;3.95;;;13.40;99.90;;;12.52;100.00;96761.94;5012238;28;20870;-76
2023/04/23 02:43:17;;;;;;;7.90;4.47;;;13.40;99.90;;;12.43;100.00;96752.19;5011322;28;21264;-76
2023/04/23 02:45:43;;;;;;;5.40;3.60;;;13.30;99.90;;;12.33;100.00;96753.84;5012127;28;20877;-76
2023/04/23 02:48:11;;;;;;;5.03;4.00;;;13.20;99.90;;;12.27;100.00;96760.25;5012138;28;20456;-76
2023/04/23 02:50:40;;;;;;;7.32;4.63;;;13.10;99.90;;;12.27;100.00;96746.19;5011918;28;20453;-76
2023/04/23 02:53:06;;;;;;;8.38;5.65;;;13.10;99.90;;;12.32;100.00;96751.50;5012062;28;20417;-76
2023/04/23 02:55:32;;;;;;;11.18;5.90;;;13.10;99.90;;;12.23;100.00;96756.59;5011964;28;20412;-76
2023/04/23 02:57:58;;;;;;;10.18;5.97;;;13.00;99.90;;;12.15;100.00;96761.69;5012105;28;20491;-76
2023/04/23 03:00:25;;;;;;;11.32;6.30;;;12.90;99.90;;;12.00;100.00;96770.53;5011978;28;20415;-76
2023/04/23 03:02:51;;;;;;;13.50;7.20;;;12.90;99.90;;;11.97;100.00;96765.78;5011910;28;20409;-76
2023/04/23 03:05:18;;;;;;;14.85;7.70;;;12.80;99.90;;;12.02;100.00;96776.38;5011682;28;20748;-76
2023/04/23 03:07:44;;;;;;;14.07;7.75;;;12.90;99.90;;;12.04;100.00;96774.22;5011699;28;20432;-77
2023/04/23 03:10:10;;;;;;;14.20;7.87;;;12.90;99.90;;;11.86;100.00;96775.66;5011704;28;20820;-77
2023/04/23 03:12:36;;;;;;;12.07;7.00;;;12.70;99.90;;;11.82;100.00;96771.94;5011603;28;20419;-77
2023/04/23 03:15:02;;;;;;;17.90;8.50;;;12.70;99.90;;;11.89;100.00;96775.09;5011659;28;20499;-77
2023/04/23 03:17:29;;;;;;;17.57;8.50;;;12.80;99.90;;;11.88;100.00;96768.19;5012340;28;20488;-77
2023/04/23 03:19:55;;;;;;;21.25;9.43;;;12.80;99.90;;;11.93;100.00;96767.41;5012344;28;20814;-77
2023/04/23 03:22:22;;;;;;;23.40;9.50;;;12.80;99.90;;;11.83;100.00;96762.94;5011717;28;20450;-77
2023/04/23 03:24:48;;;;;;;21.23;9.05;;;12.70;99.90;;;11.78;100.00;96762.19;5011247;28;20771;-77
2023/04/23 03:27:13;;;;;;;16.85;8.65;;;12.70;99.90;;;11.78;100.00;96754.22;5011393;28;20416;-77
2023/04/23 03:29:40;;;;;;;22.20;9.80;;;12.70;99.90;;;11.84;100.00;96767.19;5010949;28;20762;-77
2023/04/23 03:32:06;;;;;;;25.02;10.68;;;12.70;99.90;;;11.80;100.00;96763.47;5011324;28;20717;-77
2023/04/23 03:34:31;;;;;;;21.80;9.80;;;12.70;99.90;;;11.64;100.00;96754.81;5011010;28;20408;-77
2023/04/23 03:36:57;;;;;;;14.70;8.88;;;12.50;99.90;;;11.61;100.00;96757.19;5011179;28;20451;-77
2023/04/23 03:39:25;;;;;;;18.55;9.95;;;12.50;99.90;;;11.62;100.00;96761.44;5011040;28;20409;-77
2023/04/23 03:41:51;;;;;;;22.83;11.40;;;12.50;99.90;;;11.73;100.00;96754.22;5011118;28;20411;-76
2023/04/23 03:44:16;;;;;;;23.63;11.50;;;12.60;99.90;;;11.71;100.00;96751.06;5010996;28;20978;-77
2023/04/23 03:46:42;;;;;;;21.15;10.27;;;12.60;99.90;;;11.57;100.00;96748.22;5011159;28;20440;-77
2023/04/23 03:49:08;;;;;;;18.88;9.82;;;12.50;99.90;;;11.53;100.00;96745.28;5011052;28;20879;-77
2023/04/23 03:51:34;;;;;;;21.70;10.75;;;12.50;99.90;;;11.56;100.00;96751.91;5010698;28;20499;-77
2023/04/23 03:54:00;;;;;;;21.30;9.98;;;12.50;99.90;;;11.59;100.00;96754.81;5010956;28;20409;-77
2023/04/23 03:56:27;;;;;;;25.48;11.98;;;12.50;99.90;;;11.68;100.00;96760.34;5011061;28;20408;-77
2023/04/23 03:58:53;;;;;;;23.85;11.20;;;12.60;99.90;;;11.65;100.00;96766.19;5010984;28;20409;-77
2023/04/23 04:01:19;;;;;;;25.65;10.85;;;12.40;99.90;;;11.47;100.00;96764.16;5010847;28;20401;-77
2023/04/23 04:03:45;;;;;;;18.98;9.88;;;12.30;99.90;;;11.35;100.00;96772.38;5009453;28;20416;-76
2023/04/23 04:06:11;;;;;;;24.57;10.17;;;12.20;99.90;;;11.37;100.00;96767.63;5010826;28;20488;-76
2023/04/23 04:08:37;;;;;;;24.07;11.20;;;12.30;99.90;;;11.50;100.00;96766.28;5010820;28;20759;-76
2023/04/23 04:11:03;;;;;;;20.50;9.73;;;12.30;99.90;;;11.36;100.00;96778.47;5010617;28;20420;-76
2023/04/23 04:13:30;;;;;;;17.58;9.10;;;12.30;99.90;;;11.31;100.00;96778.50;5009575;28;20409;-76
2023/04/23 04:15:56;;;;;;;19.75;10.32;;;12.20;99.90;;;11.36;100.00;96778.47;5010627;28;20405;-76
2023/04/23 04:18:22;;;;;;;21.07;10.73;;;12.20;99.90;;;11.38;100.00;96779.81;5010775;28;20535;-77
2023/04/23 04:20:47;;;;;;;24.33;10.88;;;12.20;99.90;;;11.26;100.00;96774.03;5009264;28;20416;-77
2023/04/23 04:23:13;;;;;;;23.55;10.40;;;12.10;99.90;;;11.10;100.00;96777.78;5010720;28;20441;-77
2023/04/23 04:25:39;;;;;;;22.33;10.85;;;12.00;99.90;;;11.08;100.00;96775.41;5010701;28;20459;-77
2023/04/23 04:28:10;;;;;;;23.88;10.68;;;11.90;99.90;;;10.96;100.00;96782.06;5010720;28;20494;-77
2023/04/23 04:30:39;;;;;;;26.17;10.85;;;11.80;99.90;;;10.90;100.00;96775.94;5010519;28;20404;-77
2023/04/23 04:33:05;;;;;;;21.70;10.18;;;11.70;99.90;;;10.77;100.00;96777.31;5009286;28;20454;-76
2023/04/23 04:35:31;;;;;;;23.23;10.50;;;11.70;99.90;;;10.74;100.00;96777.84;5010441;28;20496;-77
2023/04/23 04:37:57;;;;;;;16.30;9.38;;;11.60;99.90;;;10.70;100.00;96783.94;5010495;28;20409;-77
2023/04/23 04:40:25;;;;;;;25.90;11.13;;;11.60;99.90;;;10.82;100.00;96774.66;5011267;28;20447;-77
2023/04/23 04:42:51;;;;;;;22.25;11.25;;;11.70;99.90;;;10.93;100.00;96782.56;5014470;28;20404;-77
2023/04/23 04:45:18;;;;;;;21.17;10.90;;;11.70;99.90;;;10.83;100.00;96772.78;5014350;28;20455;-77
2023/04/23 04:47:45;;;;;;;19.50;9.68;;;11.70;99.90;;;10.65;100.00;96776.78;5014390;28;20409;-77
2023/04/23 04:50:11;;;;;;;19.15;9.68;;;11.60;99.90;;;10.67;100.00;96776.53;5014132;28;20423;-77
2023/04/23 04:52:37;;;;;;;23.27;10.77;;;11.60;99.90;;;10.83;100.00;96764.84;5014254;28;20412;-77
2023/04/23 04:55:05;;;;;;;21.40;10.32;;;11.70;99.90;;;10.79;100.00;96775.19;5014075;28;20885;-77
2023/04/23 04:57:31;;;;;;;23.55;10.50;;;11.70;99.90;;;10.84;100.00;96782.31;5014063;28;20898;-77
2023/04/23 04:59:57;;;;;;;21.30;9.70;;;11.70;99.90;;;10.78;100.00;96776.25;5013808;28;20408;-77
2023/04/23 05:02:23;;;;;;;18.33;9.03;;;11.70;99.90;;;10.83;100.00;96773.59;5013975;28;20447;-77
2023/04/23 05:04:51;;;;;;;19.63;9.88;;;11.70;99.90;;;10.93;100.00;96767.47;5012528;28;20413;-76
2023/04/23 05:07:17;;;;;;;23.67;9.68;;;11.90;99.90;;;11.02;100.00;96771.19;4993231;28;20445;-76
2023/04/23 05:09:43;;;;;;;24.25;10.73;;;11.90;99.90;;;11.13;100.00;96778.03;4994367;28;20971;-76
2023/04/23 05:12:09;;;;;;;23.88;9.68;;;12.00;99.90;;;11.10;100.00;96773.28;4994356;28;20422;-75
2023/04/23 05:14:35;;;;;;;24.40;10.75;;;12.00;99.90;;;11.15;100.00;96783.84;4994277;28;20411;-75
2023/04/23 05:17:01;;;;;;;23.58;10.50;;;12.00;99.90;;;11.21;100.00;96776.69;4994357;28;20470;-75
2023/04/23 05:19:27;;;;;;;21.58;9.98;;;12.00;99.90;;;11.19;100.00;96771.69;5002987;28;20732;-77
2023/04/23 05:21:55;;;;;;;19.00;9.40;;;12.00;99.90;;;11.21;100.00;96769.53;5007737;28;20401;-76
2023/04/23 05:24:21;;;;;;;16.27;8.57;;;12.00;99.90;;;11.35;100.00;96775.03;5013610;28;20404;-77
2023/04/23 05:26:47;;;;;;;17.80;8.48;;;12.10;99.90;;;11.44;100.00;96768.13;5013607;28;20771;-77
2023/04/23 05:29:16;;;;;;;13.80;7.25;;;12.20;99.90;;;11.58;100.00;96778.94;5012268;28;20470;-77
2023/04/23 05:31:42;;;;;;;17.52;8.30;;;12.40;99.90;;;11.71;100.00;96777.56;5013339;28;20853;-76
2023/04/23 05:34:08;;;;;;;15.35;7.57;;;12.50;99.90;;;11.79;100.00;96783.13;5013414;28;20409;-77
2023/04/23 05:36:34;;;;;;;13.90;7.13;;;12.60;99.90;;;11.88;100.00;96776.16;5013694;28;20496;-78
2023/04/23 05:39:01;;;;;;;13.73;6.85;;;12.70;99.90;;;11.97;100.00;96777.19;5012307;28;20534;-77
2023/04/23 05:41:27;;;;;;;16.23;7.60;;;12.80;99.90;;;11.89;100.00;96772.44;5013380;28;20405;-77
2023/04/23 05:43:53;;;;;;;12.10;6.40;;;12.60;99.90;;;11.79;100.00;96777.81;5013216;28;20454;-76
2023/04/23 05:46:19;;;;;;;12.48;5.80;;;12.50;99.90;;;11.99;100.00;96779.56;5013312;28;20488;-77
2023/04/23 05:48:45;;;;;;;11.68;6.20;;;12.60;99.90;;;12.01;100.00;96780.88;5013210;28;20401;-77
2023/04/23 05:51:12;;;;;;;11.60;5.60;;;12.70;99.90;;;11.90;100.00;96776.69;5012812;28;20982;-76
2023/04/23 05:53:38;;;;;;;9.75;5.03;;;12.60;99.90;;;11.91;100.00;96780.94;5013223;28;21006;-76
2023/04/23 05:56:06;;;;;;;8.45;4.63;;;12.60;99.90;;;11.93;100.00;96781.47;5013178;28;20412;-76
2023/04/23 05:58:31;;;;;;;8.93;4.72;;;12.60;99.90;;;11.93;100.00;96784.09;5013130;28;20408;-77
2023/04/23 06:00:57;;;;;;;8.18;4.80;;;12.60;99.90;;;11.95;100.00;96779.31;5013625;28;20404;-78
2023/04/23 06:03:23;;;;;;;7.88;4.53;;;12.70;99.90;;;12.02;100.00;96779.81;5013675;28;20400;-76
2023/04/23 06:05:49;;;;;;;7.35;4.60;;;12.80;99.90;;;12.08;100.00;96782.44;5012953;28;20405;-77
2023/04/23 06:08:15;;;;;;;6.53;4.25;;;12.80;99.90;;;12.01;100.00;96780.88;5012416;28;20810;-77
2023/04/23 06:10:42;;;;;;;8.50;4.88;;;12.80;99.90;;;11.95;100.00;96776.66;5012172;28;20401;-78
2023/04/23 06:13:09;;;;;;;8.20;4.20;;;12.70;99.90;;;11.97;100.00;96779.03;5012625;28;20420;-77
2023/04/23 06:15:35;;;;;;;8.18;4.60;;;12.70;99.90;;;11.94;100.00;96784.91;5012278;28;20950;-76
2023/04/23 06:18:01;;;;;;;8.23;4.57;;;12.70;99.90;;;11.95;100.00;96789.91;5010974;28;20492;-76
2023/04/23 06:20:28;;;;;;;8.53;4.37;;;12.70;99.90;;;11.93;100.00;96786.75;5012779;28;20957;-77
2023/04/23 06:22:54;;;;;;;6.65;4.10;;;12.70;99.90;;;12.01;100.00;96785.38;5012659;28;20854;-77
2023/04/23 06:25:20;;;;;;;8.40;3.95;;;12.80;99.90;;;11.92;100.00;96787.81;5012505;28;20491;-76
2023/04/23 06:27:46;;;;;;;7.70;3.92;;;12.60;99.90;;;12.03;100.00;96794.63;5012680;28;20412;-77
2023/04/23 06:30:13;;;;;;;7.75;3.50;;;12.80;99.90;;;12.09;100.00;96789.31;5014429;28;20408;-79
2023/04/23 06:32:39;;;;;;;7.28;3.38;;;12.70;99.90;;;12.21;100.00;96784.47;5013266;28;20427;-78
2023/04/23 06:35:06;;;;;;;5.60;3.30;;;12.90;99.90;;;12.35;100.00;96780.09;5012905;28;20802;-77
2023/04/23 06:37:32;;;;;;;8.32;3.97;;;13.10;99.90;;;12.49;100.00;96777.63;5012279;28;20774;-77
2023/04/23 06:39:58;;;;;;;5.03;2.90;;;13.20;99.90;;;12.26;100.00;96777.25;5014504;28;20401;-79
2023/04/23 06:42:24;;;;;;;4.32;2.75;;;13.00;99.90;;;12.22;100.00;96767.47;5012304;28;20401;-77
2023/04/23 06:44:50;;;;;;;3.95;3.03;;;13.00;99.90;;;12.41;100.00;96773.69;5012097;28;20961;-77
2023/04/23 06:47:18;;;;;;;5.13;2.90;;;13.00;99.90;;;12.27;100.00;96773.53;5012299;28;20400;-76
2023/04/23 06:49:44;;;;;;;4.68;2.63;;;13.00;99.90;;;12.18;100.00;96767.22;5012035;28;20455;-77
2023/04/23 06:52:10;;;;;;;4.43;2.80;;;12.90;99.90;;;12.05;100.00;96767.84;5011940;28;20992;-77
2023/04/23 06:54:36;;;;;;;7.70;2.50;;;12.80;99.90;;;11.75;100.00;96760.84;5010685;28;20444;-77
2023/04/23 06:57:02;;;;;;;3.58;2.40;;;12.50;99.90;;;11.78;100.00;96768.28;5031088;28;20502;-77
2023/04/23 06:59:28;;;;;;;3.77;2.70;;;12.50;99.90;;;11.83;100.00;96757.63;5031501;28;20856;-77
2023/04/23 07:01:54;;;;;;;4.53;2.22;;;12.50;99.90;;;11.89;100.00;96761.84;5031574;28;20391;-77
2023/04/23 07:04:21;;;;;;;3.03;2.33;;;12.60;99.90;;;12.12;100.00;96757.72;5030975;28;20461;-77
2023/04/23 07:06:47;;;;;;;3.80;2.10;;;12.80;99.90;;;12.35;100.00;96750.91;5031565;28;20422;-77
2023/04/23 07:09:13;;;;;;;2.58;2.00;;;13.00;99.90;;;12.64;100.00;96750.94;5046981;28;20407;-77
2023/04/23 07:11:39;;;;;;;5.07;2.30;;;13.30;99.90;;;12.70;100.00;96742.66;5031270;28;20501;-77
2023/04/23 07:14:05;;;;;;;4.00;2.13;;;13.30;99.90;;;12.85;100.00;96743.59;5039844;28;20415;-77
2023/04/23 07:16:32;;;;;;;2.97;2.00;;;13.50;99.90;;;12.85;100.00;96749.69;5012038;28;20906;-78
2023/04/23 07:19:00;;;;;;;3.75;2.20;;;13.50;99.90;;;12.85;100.00;96755.00;5012107;28;20437;-77
2023/04/23 07:21:27;;;;;;;3.95;2.50;;;13.50;99.90;;;12.95;100.00;96754.09;5011700;28;20415;-76
2023/04/23 07:23:55;;;;;;;4.60;2.80;;;13.60;99.90;;;13.02;100.00;96751.91;5011198;28;20798;-76
2023/04/23 07:26:21;;;;;;;5.57;3.15;;;13.70;99.90;;;13.20;100.00;96755.75;5012337;28;20401;-76
2023/04/23 07:28:48;;;;;;;4.03;2.43;;;13.90;99.90;;;13.40;100.00;96745.66;5013452;28;20434;-79
2023/04/23 07:31:14;;;;;;;2.90;2.27;;;14.00;99.90;;;13.29;100.00;96743.41;5011955;28;20503;-77
2023/04/23 07:33:40;;;;;;;3.70;2.40;;;14.00;99.90;;;13.42;100.00;96748.81;5014962;28;20405;-78
2023/04/23 07:36:06;;;;;;;3.47;2.67;;;14.10;99.90;;;13.40;100.00;96743.00;5018300;28;20423;-78
2023/04/23 07:38:34;;;;;;;4.67;2.70;;;14.10;99.90;;;13.40;100.00;96742.19;5023329;28;20965;-78
2023/04/23 07:41:00;;;;;;;4.45;2.22;;;14.10;99.90;;;13.12;100.00;96751.81;5019174;28;20407;-77
2023/04/23 07:43:26;;;;;;;4.05;2.60;;;13.80;99.90;;;13.41;100.00;96741.13;5012204;28;20416;-77
2023/04/23 07:45:52;;;;;;;4.07;2.28;;;14.00;99.90;;;13.23;100.00;96739.25;5011641;28;20417;-77
2023/04/23 07:48:18;;;;;;;3.40;2.33;;;13.90;99.90;;;13.04;100.00;96737.28;5009888;28;20520;-76
2023/04/23 07:50:44;;;;;;;13.70;2.53;;;13.70;99.90;;;13.16;100.00;96736.91;5016985;28;20401;-76
2023/04/23 07:53:10;;;;;;;3.50;2.20;;;13.80;99.90;;;13.21;100.00;96736.06;5017646;28;20435;-76
2023/04/23 07:55:37;;;;;;;2.53;2.30;;;13.80;99.90;;;13.50;100.00;96732.25;5016934;28;20419;-76
2023/04/23 07:58:03;;;;;;;4.22;2.10;;;14.10;99.90;;;13.72;100.00;96726.38;5004100;28;20414;-76
2023/04/23 08:00:29;;;;;;;4.95;3.00;;;14.30;99.90;;;13.98;100.00;96732.16;5004311;28;20468;-76
2023/04/23 08:02:55;;;;;;;4.20;2.50;;;14.60;99.90;;;13.84;100.00;96732.06;5002992;28;20734;-76
2023/04/23 08:05:21;;;;;;;4.32;2.78;;;14.50;99.90;;;14.04;100.00;96736.31;5003318;28;20406;-76
2023/04/23 08:07:47;;;;;;;2.50;2.28;;;14.70;99.90;;;14.11;100.00;96728.75;5004600;28;20413;-76
2023/04/23 08:10:13;;;;;;;3.47;2.30;;;14.80;99.90;;;14.28;100.00;96730.91;5001799;28;20405;-76
2023/04/23 08:12:40;;;;;;;5.20;2.50;;;14.90;99.90;;;13.95;100.00;96722.84;5001351;28;20506;-77
2023/04/23 08:15:09;;;;;;;3.13;2.40;;;14.60;99.90;;;14.17;100.00;96711.63;4998943;28;20861;-77
2023/04/23 08:17:34;;;;;;;3.35;2.50;;;14.80;99.90;;;14.31;100.00;96715.13;5008933;28;20413;-77
2023/04/23 08:20:02;;;;;;;4.70;2.58;;;15.00;99.90;;;14.43;100.00;96712.03;5016338;28;20439;-77
2023/04/23 08:22:28;;;;;;;3.50;2.50;;;15.10;99.90;;;14.52;100.00;96712.13;5002922;28;20397;-76
2023/04/23 08:24:54;;;;;;;3.20;2.50;;;15.10;99.90;;;14.64;100.00;96712.47;5010872;28;20477;-76
2023/04/23 08:27:20;;;;;;;1.98;1.83;;;15.30;99.90;;;14.78;100.00;96720.50;5009805;28;20495;-76
2023/04/23 08:29:47;;;;;;;2.83;2.15;;;15.40;99.90;;;14.87;100.00;96713.41;5010155;28;20475;-76
2023/04/23 08:32:13;;;;;;;3.10;1.95;;;15.50;99.90;;;14.96;100.00;96715.06;5011956;28;20898;-78
2023/04/23 08:34:39;;;;;;;2.70;2.30;;;15.60;99.90;;;15.07;100.00;96705.03;5008880;28;20409;-76
2023/04/23 08:37:05;;;;;;;2.70;1.90;;;15.70;99.90;;;15.17;100.00;96706.72;5013758;28;20904;-76
2023/04/23 08:39:33;;;;;;;1.85;1.75;;;15.80;99.90;;;15.30;100.00;96706.69;5002657;28;20445;-76
2023/04/23 08:42:10;;;;;;;2.30;2.10;;;16.00;99.90;;;15.37;100.00;96695.63;5009898;28;20401;-76
2023/04/23 08:44:39;;;;;;;3.13;2.30;;;16.00;99.90;;;15.40;100.00;96703.03;5008999;28;20405;-76
2023/04/23 08:47:08;;;;;;;6.00;2.37;;;16.00;99.90;;;15.24;100.00;96704.44;5010074;28;20472;-76
2023/04/23 08:49:39;;;;;;;3.08;1.92;;;15.90;99.90;;;15.09;100.00;96702.84;5010432;28;20454;-76
2023/04/23 08:52:15;;;;;;;2.60;1.97;;;15.70;99.90;;;14.99;100.00;96700.38;5010396;28;20775;-76
2023/04/23 08:54:48;;;;;;;2.45;2.15;;;15.60;99.90;;;15.00;100.00;96686.75;5010394;28;20450;-76
2023/04/23 08:57:16;;;;;;;2.57;2.00;;;15.60;99.90;;;15.01;100.00;96691.00;5010486;28;20416;-76
2023/04/23 08:59:43;;;;;;;2.10;1.90;;;15.60;99.90;;;15.24;100.00;96680.44;5010214;28;20673;-76
2023/04/23 09:02:11;;;;;;;3.90;2.20;;;15.80;99.90;;;15.16;100.00;96673.94;5025455;28;20423;-76
2023/04/23 09:04:37;;;;;;;4.80;2.25;;;15.80;99.90;;;15.34;100.00;96682.88;5010372;28;20415;-76
2023/04/23 09:07:10;;;;;;;3.30;2.10;;;15.90;99.90;;;15.48;100.00;96673.81;5009520;28;20435;-76
2023/04/23 09:09:38;;;;;;;3.20;2.00;;;16.10;99.90;;;15.46;100.00;96670.63;5009879;28;20405;-76
2023/04/23 09:12:05;;;;;;;6.30;1.90;;;16.10;99.90;;;15.38;100.00;96679.34;5010514;28;20544;-76
2023/04/23 09:14:32;;;;;;;3.80;1.67;;;16.00;99.90;;;15.34;100.00;96681.00;5010229;28;20898;-76
2023/04/23 09:16:58;;;;;;;2.88;2.30;;;16.00;99.90;;;15.48;100.00;96673.81;5010344;28;20405;-76
2023/04/23 09:19:27;;;;;;;2.40;1.50;;;16.10;99.90;;;15.58;100.00;96675.47;5010264;28;20415;-76
2023/04/23 09:21:53;;;;;;;2.40;1.63;;;16.20;99.90;;;15.90;100.00;96663.81;5010345;28;20790;-76
2023/04/23 09:24:21;;;;;;;2.05;1.67;;;16.50;99.90;;;16.12;100.00;96663.81;5010340;28;20405;-76
2023/04/23 09:26:50;;;;;;;2.60;1.70;;;16.70;99.90;;;16.20;100.00;96668.44;5026695;28;20412;-76
2023/04/23 09:29:18;;;;;;;2.00;1.60;;;16.80;99.90;;;16.45;100.00;96656.34;5013620;28;20432;-76
2023/04/23 09:31:46;;;;;;;2.03;1.50;;;17.10;99.90;;;16.56;100.00;96654.19;5013596;28;20416;-76
2023/04/23 09:34:16;;;;;;;2.50;1.50;;;17.20;99.90;;;16.68;100.00;96651.78;5014731;28;20416;-76
2023/04/23 09:36:44;;;;;;;1.92;1.60;;;17.30;99.90;;;16.84;100.00;96647.56;5013591;28;20531;-76
2023/04/23 09:39:12;;;;;;;1.63;1.45;;;17.50;99.90;;;16.55;100.00;96649.94;5013411;28;20409;-76
2023/04/23 09:41:38;;;;;;;7.97;2.20;;;17.20;99.90;;;16.51;100.00;96646.31;5013516;28;20820;-76
2023/04/23 09:44:04;;;;;;;3.33;1.40;;;17.20;99.90;;;16.58;100.00;96644.78;5013307;28;20634;-76
2023/04/23 09:46:35;;;;;;;2.33;1.40;;;17.30;99.90;;;16.24;100.00;96649.91;5013294;28;20483;-76
2023/04/23 09:49:03;;;;;;;2.87;1.67;;;16.90;95.40;;;16.43;100.00;96639.03;5013300;28;20401;-76
2023/04/23 09:51:29;;;;;;;2.93;1.47;;;17.00;99.90;;;16.68;100.00;96632.28;5013148;28;20451;-76
2023/04/23 09:53:57;;;;;;;1.60;1.30;;;17.30;99.90;;;16.84;100.00;96626.19;5013187;28;20484;-76
2023/04/23 09:56:23;;;;;;;3.10;1.40;;;17.40;99.90;;;16.80;100.00;96635.94;5013357;28;20818;-76
2023/04/23 09:58:49;;;;;;;2.83;1.25;;;17.40;99.00;;;16.87;100.00;96635.47;5013110;28;20899;-76
2023/04/23 10:01:15;;;;;;;1.65;1.17;;;17.40;95.30;;;17.21;100.00;96619.56;5012955;28;20405;-76
2023/04/23 10:03:42;;;;;;;3.00;1.10;;;17.80;99.90;;;17.26;100.00;96610.59;5028337;28;20482;-76
2023/04/23 10:06:13;;;;;;;2.40;1.20;;;17.80;99.90;;;17.49;100.00;96612.03;5013020;28;20937;-76
2023/04/23 10:08:39;;;;;;;2.25;1.50;;;18.00;99.90;;;17.72;100.00;96610.03;5013195;28;20397;-76